Fantasia — ICJY — position and weather

sailwx.info

Track history (hours):
 
Tides and Currents Weather Stations Pressure Air Temp Water Temp Dewpoint Dewpoint Depression Visibility Wind Speed Wind Dir Waves Ship Positions

Fantasia

Last reported at 2015-Jul-27 03:15 UTC. Time now 2015-Jul-28 10:20 UTC.
Position N 40°12' W 067°52'.

Length 183 m; draft 8.4 m.

Type: Tanker. MMSI: 247279600.

Date/timePositionNaut miles runAvg speedWind from/ knotsBaromVisibWave heightAir tempDewpointWater temp
2015-Jul-27 03:15N 40°12' W 067°52'19814.1
2015-Jul-26 13:11N 40°23' W 072°11'1013.8
2015-Jul-26 12:26N 40°23' W 072°25'1213.8
2015-Jul-26 11:33N 40°22' W 072°41'1813.9
2015-Jul-26 10:13N 40°22' W 073°05'913.6
2015-Jul-26 09:33N 40°23' W 073°17'1413.8
2015-Jul-26 08:33N 40°25' W 073°35'1312.5
2015-Jul-26 07:29N 40°28' W 073°52'1112.3
2015-Jul-26 06:33N 40°36' W 074°03'2 2.1
2015-Jul-26 05:31N 40°38' W 074°04'1 0.8
2015-Jul-26 04:34N 40°38' W 074°03'8 8.4
2015-Jul-26 03:34N 40°29' W 074°03'10 8.7
2015-Jul-26 02:27N 40°31' W 074°15'2 0.0
2015-Jul-24 07:34N 40°32' W 074°15'3 2.8
2015-Jul-24 06:32N 40°30' W 074°13'8 7.9
2015-Jul-24 05:34N 40°29' W 074°03'1010.2
2015-Jul-24 04:34N 40°27' W 073°50'6 6.2
2015-Jul-24 03:33N 40°27' W 073°42'7 7.4
2015-Jul-24 02:33N 40°28' W 073°32'1010.2
2015-Jul-24 01:33N 40°29' W 073°19'1212.3
2015-Jul-24 00:33N 40°30' W 073°02'1312.9
2015-Jul-23 23:33N 40°30' W 072°45'1312.7
2015-Jul-23 22:33N 40°31' W 072°29'1312.5
2015-Jul-23 21:33N 40°31' W 072°12'1212.3
2015-Jul-23 20:33N 40°31' W 071°56'1110.5
2015-Jul-23 19:33N 40°31' W 071°42'1313.2
2015-Jul-23 18:33N 40°32' W 071°25'1313.5
2015-Jul-23 17:33N 40°32' W 071°07'1313.4
2015-Jul-23 16:33N 40°33' W 070°50'1313.4
2015-Jul-23 15:33N 40°33' W 070°32'1413.8
2015-Jul-23 14:33N 40°33' W 070°14'1414.0
2015-Jul-23 13:33N 40°34' W 069°55'1414.1
2015-Jul-23 12:34N 40°34' W 069°37'1413.7
2015-Jul-23 11:34N 40°34' W 069°19'1413.4
2015-Jul-23 10:33N 40°34' W 069°01'1513.1
2015-Jul-23 09:27N 40°34' W 068°42'1213.0
2015-Jul-23 08:33N 40°31' W 068°27'1412.5
2015-Jul-23 07:25N 40°26' W 068°09'  
Track history (hours):
 
Tides and Currents Weather Stations Pressure Air Temp Water Temp Dewpoint Dewpoint Depression Visibility Wind Speed Wind Dir Waves Ship Positions

Fantasia

Last reported at 2015-Jul-27 03:15 UTC. Time now 2015-Jul-28 10:20 UTC.
Position N 40°12' W 067°52'.

Length 183 m; draft 8.4 m.

Type: Tanker. MMSI: 247279600.

Date/timePositionNaut miles runAvg speedWind from/ knotsBaromVisibWave heightAir tempDewpointWater temp
2015-Jul-27 03:15N 40°12' W 067°52'19814.1
2015-Jul-26 13:11N 40°23' W 072°11'1013.8
2015-Jul-26 12:26N 40°23' W 072°25'1213.8
2015-Jul-26 11:33N 40°22' W 072°41'1813.9
2015-Jul-26 10:13N 40°22' W 073°05'913.6
2015-Jul-26 09:33N 40°23' W 073°17'1413.8
2015-Jul-26 08:33N 40°25' W 073°35'1312.5
2015-Jul-26 07:29N 40°28' W 073°52'1112.3
2015-Jul-26 06:33N 40°36' W 074°03'2 2.1
2015-Jul-26 05:31N 40°38' W 074°04'1 0.8
2015-Jul-26 04:34N 40°38' W 074°03'8 8.4
2015-Jul-26 03:34N 40°29' W 074°03'10 8.7
2015-Jul-26 02:27N 40°31' W 074°15'2 0.0
2015-Jul-24 07:34N 40°32' W 074°15'3 2.8
2015-Jul-24 06:32N 40°30' W 074°13'8 7.9
2015-Jul-24 05:34N 40°29' W 074°03'1010.2
2015-Jul-24 04:34N 40°27' W 073°50'6 6.2
2015-Jul-24 03:33N 40°27' W 073°42'7 7.4
2015-Jul-24 02:33N 40°28' W 073°32'1010.2
2015-Jul-24 01:33N 40°29' W 073°19'1212.3
2015-Jul-24 00:33N 40°30' W 073°02'1312.9
2015-Jul-23 23:33N 40°30' W 072°45'1312.7
2015-Jul-23 22:33N 40°31' W 072°29'1312.5
2015-Jul-23 21:33N 40°31' W 072°12'1212.3
2015-Jul-23 20:33N 40°31' W 071°56'1110.5
2015-Jul-23 19:33N 40°31' W 071°42'1313.2
2015-Jul-23 18:33N 40°32' W 071°25'1313.5
2015-Jul-23 17:33N 40°32' W 071°07'1313.4
2015-Jul-23 16:33N 40°33' W 070°50'1313.4
2015-Jul-23 15:33N 40°33' W 070°32'1413.8
2015-Jul-23 14:33N 40°33' W 070°14'1414.0
2015-Jul-23 13:33N 40°34' W 069°55'1414.1
2015-Jul-23 12:34N 40°34' W 069°37'1413.7
2015-Jul-23 11:34N 40°34' W 069°19'1413.4
2015-Jul-23 10:33N 40°34' W 069°01'1513.1
2015-Jul-23 09:27N 40°34' W 068°42'1213.0
2015-Jul-23 08:33N 40°31' W 068°27'1412.5
2015-Jul-23 07:25N 40°26' W 068°09'  

Dump ship's entire track history